createdAt,value
2023-02-24T00:00:32.172Z,93.13
2023-02-24T00:03:06.273Z,92.53
2023-02-24T00:05:37.088Z,92.82
2023-02-24T00:08:06.910Z,92.85
2023-02-24T00:10:37.488Z,92.27
2023-02-24T00:13:05.664Z,92.17
2023-02-24T00:15:33.693Z,92.14
2023-02-24T00:18:06.947Z,92.77
2023-02-24T00:20:35.685Z,92.47
2023-02-24T00:23:03.924Z,91.61
2023-02-24T00:25:33.300Z,91.59
2023-02-24T00:28:01.633Z,91.11
2023-02-24T00:30:31.482Z,91.16
2023-02-24T00:33:01.347Z,90.15
2023-02-24T00:35:30.311Z,89.91
2023-02-24T00:37:58.177Z,89.35
2023-02-24T00:40:26.664Z,89.01
2023-02-24T00:42:55.954Z,88.86
2023-02-24T00:45:23.892Z,88.42
2023-02-24T00:47:51.817Z,88.06
2023-02-24T00:50:20.057Z,87.10
2023-02-24T00:52:49.821Z,87.20
2023-02-24T00:55:19.202Z,85.88
2023-02-24T00:57:47.119Z,85.97
2023-02-24T01:00:19.940Z,85.22
2023-02-24T01:02:47.866Z,85.28
2023-02-24T01:05:16.052Z,85.57
2023-02-24T01:07:43.921Z,85.37
2023-02-24T01:10:13.433Z,85.20
2023-02-24T01:12:49.745Z,85.37
2023-02-24T01:15:22.444Z,85.12
2023-02-24T01:17:50.516Z,83.78
2023-02-24T01:20:19.415Z,83.89
2023-02-24T01:22:50.185Z,84.38
2023-02-24T01:25:20.265Z,82.65
2023-02-24T01:27:48.555Z,83.64
2023-02-24T01:30:18.169Z,82.89
2023-02-24T01:32:48.320Z,81.14
2023-02-24T01:35:17.785Z,80.00
2023-02-24T01:37:46.295Z,80.14
2023-02-24T01:40:20.962Z,79.97
2023-02-24T01:42:49.734Z,79.51
2023-02-24T01:45:28.614Z,78.46
2023-02-24T01:48:05.231Z,78.52
2023-02-24T01:50:35.996Z,79.08
2023-02-24T01:53:07.544Z,78.91
2023-02-24T01:55:42.831Z,78.64
2023-02-24T01:58:22.590Z,78.87
2023-02-24T02:00:51.623Z,78.41
2023-02-24T02:03:29.634Z,78.34
2023-02-24T02:06:04.740Z,79.14
2023-02-24T02:08:36.411Z,79.07
2023-02-24T02:11:07.935Z,78.71
2023-02-24T02:13:40.498Z,78.67
2023-02-24T02:16:35.610Z,78.29
2023-02-24T02:19:30.876Z,78.45
2023-02-24T02:22:23.429Z,78.67
2023-02-24T02:25:01.896Z,78.38
2023-02-24T02:27:58.409Z,77.77
2023-02-24T02:31:16.850Z,76.62
2023-02-24T02:34:27.593Z,75.21
2023-02-24T02:37:06.004Z,75.96
2023-02-24T02:39:50.552Z,75.67
2023-02-24T02:42:30.593Z,75.75
2023-02-24T02:45:07.800Z,75.45
2023-02-24T02:47:43.252Z,75.83
2023-02-24T02:50:22.543Z,75.85
2023-02-24T02:52:57.011Z,75.09
2023-02-24T02:55:36.217Z,75.49
2023-02-24T02:58:10.273Z,74.94
2023-02-24T03:00:50.008Z,75.43
2023-02-24T03:03:20.400Z,75.72
2023-02-24T03:05:58.760Z,75.64
2023-02-24T03:08:34.266Z,74.91
2023-02-24T03:11:05.822Z,74.91
2023-02-24T03:13:41.440Z,75.09
2023-02-24T03:16:13.469Z,75.32
2023-02-24T03:18:50.884Z,75.39
2023-02-24T03:21:33.921Z,75.36
2023-02-24T03:24:05.632Z,75.42
2023-02-24T03:26:41.732Z,75.32
2023-02-24T03:29:18.586Z,75.60
2023-02-24T03:31:54.135Z,75.43
2023-02-24T03:34:31.060Z,75.43
2023-02-24T03:37:01.911Z,75.84
2023-02-24T03:39:30.072Z,75.98
2023-02-24T03:42:05.435Z,75.91
2023-02-24T03:44:34.049Z,76.25
2023-02-24T03:47:03.407Z,76.59
2023-02-24T03:49:32.124Z,76.11
2023-02-24T03:52:21.376Z,76.06
2023-02-24T03:55:21.374Z,76.09
2023-02-24T03:58:10.238Z,76.54
2023-02-24T04:00:52.189Z,76.77
2023-02-24T04:03:34.237Z,76.72
2023-02-24T04:06:14.165Z,77.37
2023-02-24T04:08:53.113Z,77.40
2023-02-24T04:11:30.050Z,77.11
2023-02-24T04:14:07.397Z,76.98
2023-02-24T04:16:43.070Z,77.47
2023-02-24T04:19:16.956Z,75.93
2023-02-24T04:21:49.032Z,76.22
2023-02-24T04:24:24.873Z,76.71
2023-02-24T04:26:58.849Z,76.93
2023-02-24T04:29:35.445Z,76.51
2023-02-24T04:32:08.871Z,76.52
2023-02-24T04:34:37.447Z,76.59
2023-02-24T04:37:05.470Z,76.67
2023-02-24T04:39:38.355Z,76.88
2023-02-24T04:42:07.318Z,76.42
2023-02-24T04:44:36.063Z,76.72
2023-02-24T04:47:04.791Z,76.28
2023-02-24T04:49:33.932Z,76.62
2023-02-24T04:52:01.803Z,76.12
2023-02-24T04:54:29.720Z,75.74
2023-02-24T04:56:59.473Z,75.54
2023-02-24T04:59:29.248Z,75.54
2023-02-24T05:02:01.371Z,75.41
2023-02-24T05:04:31.851Z,75.49
2023-02-24T05:07:00.239Z,75.31
2023-02-24T05:09:30.098Z,75.89
2023-02-24T05:12:00.272Z,75.47
2023-02-24T05:14:28.401Z,75.39
2023-02-24T05:17:00.213Z,75.33
2023-02-24T05:19:46.218Z,75.58
2023-02-24T05:22:16.885Z,74.54
2023-02-24T05:24:47.889Z,75.12
2023-02-24T05:27:17.382Z,75.34
2023-02-24T05:29:45.782Z,75.64
2023-02-24T05:32:16.250Z,76.01
2023-02-24T05:34:44.298Z,76.26
2023-02-24T05:37:16.553Z,76.55
2023-02-24T05:39:44.526Z,76.21
2023-02-24T05:42:12.787Z,76.77
2023-02-24T05:44:42.093Z,76.66
2023-02-24T05:47:10.525Z,77.03
2023-02-24T05:49:38.925Z,76.64
2023-02-24T05:52:09.568Z,76.95
2023-02-24T05:54:42.037Z,76.57
2023-02-24T05:57:13.414Z,76.81
2023-02-24T05:59:44.746Z,76.67
2023-02-24T06:02:15.289Z,76.59
2023-02-24T06:04:50.989Z,76.74
2023-02-24T06:07:22.805Z,76.27
2023-02-24T06:09:54.618Z,75.97
2023-02-24T06:12:24.625Z,76.66
2023-02-24T06:14:54.032Z,75.98
2023-02-24T06:17:24.317Z,75.89
2023-02-24T06:19:54.277Z,76.35
2023-02-24T06:22:25.452Z,75.65
2023-02-24T06:24:56.794Z,75.98
2023-02-24T06:27:25.777Z,76.25
2023-02-24T06:29:57.560Z,76.09
2023-02-24T06:32:27.970Z,75.97
2023-02-24T06:34:57.419Z,76.40
2023-02-24T06:37:25.631Z,76.35
2023-02-24T06:39:53.559Z,75.62
2023-02-24T06:42:21.511Z,75.96
2023-02-24T06:44:50.322Z,76.13
2023-02-24T06:47:19.681Z,76.11
2023-02-24T06:49:47.835Z,75.94
2023-02-24T06:52:18.773Z,75.18
2023-02-24T06:54:52.340Z,75.29
2023-02-24T06:57:20.648Z,75.68
2023-02-24T06:59:48.909Z,75.32
2023-02-24T07:02:17.593Z,73.79
2023-02-24T07:04:47.493Z,73.05
2023-02-24T07:07:17.211Z,73.15
2023-02-24T07:09:45.295Z,73.51
2023-02-24T07:12:15.554Z,73.63
2023-02-24T07:14:43.937Z,73.66
2023-02-24T07:17:14.677Z,72.58
2023-02-24T07:19:42.583Z,72.90
2023-02-24T07:22:14.600Z,73.11
2023-02-24T07:24:46.195Z,72.70
2023-02-24T07:27:23.136Z,72.04
2023-02-24T07:29:53.651Z,72.25
2023-02-24T07:32:23.387Z,71.41
2023-02-24T07:34:51.401Z,71.50
2023-02-24T07:37:21.024Z,71.50
2023-02-24T07:39:48.983Z,69.86
2023-02-24T07:42:17.229Z,68.85
2023-02-24T07:44:46.429Z,68.92
2023-02-24T07:47:15.802Z,68.13
2023-02-24T07:49:45.514Z,68.02
2023-02-24T07:52:13.478Z,67.25
2023-02-24T07:54:43.141Z,66.91
2023-02-24T07:57:13.680Z,66.64
2023-02-24T07:59:45.441Z,66.01
2023-02-24T08:02:13.870Z,66.39
2023-02-24T08:04:49.795Z,66.64
2023-02-24T08:07:17.928Z,66.20
2023-02-24T08:10:04.031Z,66.20
2023-02-24T08:12:34.811Z,65.36
2023-02-24T08:15:08.816Z,65.77
2023-02-24T08:17:36.801Z,65.69
2023-02-24T08:20:24.790Z,66.38
2023-02-24T08:22:55.085Z,66.26
2023-02-24T08:25:35.471Z,66.71
2023-02-24T08:28:09.385Z,66.86
2023-02-24T08:30:44.701Z,66.71
2023-02-24T08:33:17.415Z,67.57
2023-02-24T08:35:45.624Z,67.22
2023-02-24T08:38:17.293Z,67.37
2023-02-24T08:40:54.884Z,67.57
2023-02-24T08:43:34.291Z,67.04
2023-02-24T08:46:18.276Z,66.21
2023-02-24T08:48:49.554Z,65.75
2023-02-24T08:51:23.743Z,65.02
2023-02-24T08:53:54.737Z,65.21
2023-02-24T08:56:28.210Z,65.28
2023-02-24T08:59:05.327Z,65.66
2023-02-24T09:01:38.070Z,66.36
2023-02-24T09:04:10.393Z,65.65
2023-02-24T09:06:44.766Z,66.22
2023-02-24T09:09:18.701Z,65.49
2023-02-24T09:11:50.785Z,65.22
2023-02-24T09:14:29.120Z,65.45
2023-02-24T09:17:06.035Z,65.60
2023-02-24T09:19:57.865Z,65.77
2023-02-24T09:22:57.239Z,65.67
2023-02-24T09:25:40.614Z,66.15
2023-02-24T09:28:17.084Z,66.48
2023-02-24T09:30:54.502Z,66.05
2023-02-24T09:33:26.208Z,66.11
2023-02-24T09:36:09.749Z,66.51
2023-02-24T09:38:53.142Z,67.30
2023-02-24T09:41:33.796Z,66.50
2023-02-24T09:44:18.300Z,66.28
2023-02-24T09:46:54.766Z,66.21
2023-02-24T09:49:39.752Z,65.84
2023-02-24T09:52:17.410Z,64.83
2023-02-24T09:55:17.543Z,64.75
2023-02-24T09:58:26.938Z,64.21
2023-02-24T10:01:21.960Z,64.43
2023-02-24T10:04:18.312Z,64.28
2023-02-24T10:06:51.510Z,63.88
2023-02-24T10:09:26.804Z,64.16
2023-02-24T10:12:04.476Z,63.85
2023-02-24T10:14:44.723Z,63.70
2023-02-24T10:17:30.480Z,64.29
2023-02-24T10:20:02.400Z,64.13
2023-02-24T10:22:50.440Z,64.18
2023-02-24T10:25:41.092Z,63.97
2023-02-24T10:28:35.577Z,63.97
2023-02-24T10:31:25.433Z,63.39
2023-02-24T10:34:06.071Z,64.14
2023-02-24T10:36:36.274Z,66.15
2023-02-24T10:39:16.380Z,68.90
2023-02-24T10:41:47.950Z,71.04
2023-02-24T10:44:24.060Z,72.02
2023-02-24T10:47:12.307Z,73.58
2023-02-24T10:49:57.011Z,73.77
2023-02-24T10:52:37.679Z,75.48
2023-02-24T10:55:27.917Z,76.56
2023-02-24T10:58:06.874Z,78.23
2023-02-24T11:01:01.119Z,79.13
2023-02-24T11:03:42.609Z,79.97
2023-02-24T11:06:42.259Z,79.77
2023-02-24T11:09:35.233Z,80.45
2023-02-24T11:12:32.925Z,81.08
2023-02-24T11:15:22.766Z,82.28
2023-02-24T11:18:01.834Z,83.01
2023-02-24T11:20:48.449Z,83.04
2023-02-24T11:23:24.913Z,84.32
2023-02-24T11:25:59.274Z,84.52
2023-02-24T11:28:54.163Z,84.91
2023-02-24T11:31:44.769Z,84.98
2023-02-24T11:34:29.022Z,85.84
2023-02-24T11:37:15.613Z,85.43
2023-02-24T11:39:57.283Z,85.82
2023-02-24T11:42:33.904Z,85.57
2023-02-24T11:45:13.136Z,85.91
2023-02-24T11:47:54.233Z,86.04
2023-02-24T11:50:43.680Z,86.35
2023-02-24T11:53:21.302Z,85.89
2023-02-24T11:55:59.772Z,86.11
2023-02-24T11:58:41.886Z,86.22
2023-02-24T12:01:22.385Z,86.41
2023-02-24T12:03:57.877Z,85.72
2023-02-24T12:06:35.299Z,86.29
2023-02-24T12:09:15.918Z,86.06
2023-02-24T12:11:56.029Z,86.55
2023-02-24T12:14:34.924Z,86.21
2023-02-24T12:17:18.271Z,86.53
2023-02-24T12:19:59.689Z,86.87
2023-02-24T12:22:39.956Z,87.56
2023-02-24T12:25:14.873Z,86.35
2023-02-24T12:28:02.990Z,86.99
2023-02-24T12:30:51.840Z,86.70
2023-02-24T12:33:43.893Z,87.64
2023-02-24T12:36:30.910Z,87.43
2023-02-24T12:39:13.517Z,87.92
2023-02-24T12:42:08.473Z,87.62
2023-02-24T12:44:54.824Z,88.23
2023-02-24T12:47:43.036Z,89.12
2023-02-24T12:50:32.217Z,89.48
2023-02-24T12:53:18.747Z,89.34
2023-02-24T12:56:02.532Z,89.40
2023-02-24T12:58:36.996Z,89.60
2023-02-24T13:01:23.455Z,90.07
2023-02-24T13:04:26.931Z,90.20
2023-02-24T13:07:11.065Z,89.79
2023-02-24T13:09:52.260Z,90.27
2023-02-24T13:12:33.735Z,90.65
2023-02-24T13:15:04.451Z,90.42
2023-02-24T13:17:33.793Z,90.41
2023-02-24T13:20:15.407Z,90.67
2023-02-24T13:22:44.622Z,90.84
2023-02-24T13:25:23.575Z,90.77
2023-02-24T13:28:04.586Z,90.99
2023-02-24T13:30:39.913Z,91.04
2023-02-24T13:33:26.144Z,90.38
2023-02-24T13:36:12.621Z,90.64
2023-02-24T13:38:43.874Z,90.46
2023-02-24T13:41:40.543Z,90.22
2023-02-24T13:44:28.820Z,90.59
2023-02-24T13:47:50.268Z,90.80
2023-02-24T13:50:28.008Z,90.50
2023-02-24T13:53:28.070Z,90.41
2023-02-24T13:56:17.968Z,89.53
2023-02-24T13:59:09.301Z,90.48
2023-02-24T14:01:50.910Z,90.11
2023-02-24T14:04:26.416Z,90.14
2023-02-24T14:07:02.608Z,89.91
2023-02-24T14:09:38.434Z,89.48
2023-02-24T14:12:15.059Z,89.96
2023-02-24T14:14:45.638Z,89.62
2023-02-24T14:17:28.221Z,89.55
2023-02-24T14:20:08.575Z,89.17
2023-02-24T14:22:45.164Z,88.84
2023-02-24T14:25:15.688Z,89.40
2023-02-24T14:27:46.966Z,89.85
2023-02-24T14:30:26.825Z,89.79
2023-02-24T14:32:55.650Z,90.11
2023-02-24T14:35:33.762Z,89.72
2023-02-24T14:38:04.255Z,89.53
2023-02-24T14:40:33.402Z,90.08
2023-02-24T14:43:03.600Z,89.36
2023-02-24T14:45:31.530Z,89.36
2023-02-24T14:47:59.477Z,90.01
2023-02-24T14:50:34.059Z,90.08
2023-02-24T14:53:13.272Z,89.67
2023-02-24T14:55:48.012Z,89.94
2023-02-24T14:58:23.929Z,90.43
2023-02-24T15:00:59.661Z,89.94
2023-02-24T15:03:33.711Z,90.10
2023-02-24T15:06:07.788Z,89.82
2023-02-24T15:08:40.851Z,89.46
2023-02-24T15:11:21.827Z,89.54
2023-02-24T15:13:55.146Z,89.65
2023-02-24T15:16:28.447Z,89.71
2023-02-24T15:19:01.243Z,89.65
2023-02-24T15:21:32.940Z,89.80
2023-02-24T15:24:05.661Z,89.70
2023-02-24T15:26:36.152Z,89.96
2023-02-24T15:29:15.619Z,89.77
2023-02-24T15:31:48.403Z,89.64
2023-02-24T15:34:21.974Z,89.36
2023-02-24T15:36:55.372Z,89.22
2023-02-24T15:39:31.087Z,89.44
2023-02-24T15:42:09.461Z,89.12
2023-02-24T15:44:38.177Z,89.42
2023-02-24T15:47:23.434Z,89.60
2023-02-24T15:49:51.367Z,89.55
2023-02-24T15:52:27.256Z,89.24
2023-02-24T15:55:00.428Z,89.57
2023-02-24T15:57:32.436Z,89.51
2023-02-24T16:00:01.255Z,89.71
2023-02-24T16:02:29.757Z,89.50
2023-02-24T16:04:57.717Z,89.74
2023-02-24T16:07:31.928Z,89.94
2023-02-24T16:10:02.887Z,89.68
2023-02-24T16:12:36.384Z,90.03
2023-02-24T16:15:14.625Z,90.03
2023-02-24T16:17:43.972Z,90.14
2023-02-24T16:20:16.069Z,90.31
2023-02-24T16:22:44.180Z,90.50
2023-02-24T16:25:17.307Z,90.64
2023-02-24T16:27:45.454Z,90.30
2023-02-24T16:30:21.420Z,90.40
2023-02-24T16:32:50.578Z,90.40
2023-02-24T16:35:18.758Z,90.58
2023-02-24T16:37:48.514Z,90.67
2023-02-24T16:40:23.529Z,90.36
2023-02-24T16:42:53.764Z,90.49
2023-02-24T16:45:22.500Z,90.21
2023-02-24T16:47:51.126Z,90.12
2023-02-24T16:50:24.664Z,90.50
2023-02-24T16:52:52.645Z,90.44
2023-02-24T16:55:23.139Z,90.82
2023-02-24T16:57:51.056Z,90.79
2023-02-24T17:00:24.393Z,90.73
2023-02-24T17:02:53.788Z,90.58
2023-02-24T17:05:25.423Z,90.98
2023-02-24T17:07:57.174Z,91.16
2023-02-24T17:10:27.146Z,90.59
2023-02-24T17:12:55.071Z,90.72
2023-02-24T17:15:25.494Z,90.77
2023-02-24T17:17:53.586Z,90.83
2023-02-24T17:20:22.264Z,90.79
2023-02-24T17:22:50.238Z,90.85
2023-02-24T17:25:21.605Z,90.40
2023-02-24T17:27:50.924Z,90.44
2023-02-24T17:30:23.007Z,90.75
2023-02-24T17:32:51.367Z,90.85
2023-02-24T17:35:20.335Z,90.68
2023-02-24T17:38:25.652Z,90.36
2023-02-24T17:40:55.612Z,90.56
2023-02-24T17:43:25.141Z,90.75
2023-02-24T17:45:53.898Z,90.49
2023-02-24T17:48:23.124Z,90.47
2023-02-24T17:50:51.933Z,90.38
2023-02-24T17:53:19.985Z,90.43
2023-02-24T17:56:01.988Z,90.04
2023-02-24T17:58:33.417Z,90.39
2023-02-24T18:01:02.806Z,90.38
2023-02-24T18:03:34.184Z,90.45
2023-02-24T18:06:05.297Z,90.19
2023-02-24T18:08:35.310Z,89.98
2023-02-24T18:11:03.839Z,90.38
2023-02-24T18:13:34.419Z,90.03
2023-02-24T18:16:02.743Z,89.70
2023-02-24T18:18:31.274Z,89.89
2023-02-24T18:21:02.855Z,89.88
2023-02-24T18:23:31.444Z,89.98
2023-02-24T18:26:03.674Z,89.96
2023-02-24T18:28:34.524Z,89.78
2023-02-24T18:31:03.437Z,90.16
2023-02-24T18:33:31.575Z,89.96
2023-02-24T18:36:00.393Z,90.05
2023-02-24T18:38:29.275Z,89.63
2023-02-24T18:41:02.397Z,89.88
2023-02-24T18:43:33.242Z,89.93
2023-02-24T18:46:03.728Z,89.75
2023-02-24T18:48:33.898Z,89.71
2023-02-24T18:51:02.864Z,89.34
2023-02-24T18:53:35.741Z,89.61
2023-02-24T18:56:06.566Z,89.55
2023-02-24T18:58:39.331Z,89.77
2023-02-24T19:01:13.207Z,89.82
2023-02-24T19:03:41.799Z,89.70
2023-02-24T19:06:10.533Z,89.76
2023-02-24T19:08:39.529Z,89.81
2023-02-24T19:11:12.884Z,89.63
2023-02-24T19:13:42.401Z,89.72
2023-02-24T19:16:11.521Z,89.49
2023-02-24T19:18:39.803Z,89.72
2023-02-24T19:21:09.946Z,89.52
2023-02-24T19:23:39.296Z,89.40
2023-02-24T19:26:08.047Z,89.36
2023-02-24T19:28:36.019Z,89.22
2023-02-24T19:31:05.625Z,89.55
2023-02-24T19:33:33.618Z,90.01
2023-02-24T19:36:01.675Z,90.49
2023-02-24T19:38:29.645Z,90.89
2023-02-24T19:40:59.885Z,91.00
2023-02-24T19:43:28.001Z,91.21
2023-02-24T19:45:55.978Z,91.13
2023-02-24T19:48:25.408Z,91.55
2023-02-24T19:50:53.342Z,91.47
2023-02-24T19:53:21.313Z,91.77
2023-02-24T19:55:50.319Z,91.81
2023-02-24T19:58:18.449Z,91.60
2023-02-24T20:00:48.046Z,91.42
2023-02-24T20:03:16.380Z,91.25
2023-02-24T20:05:45.789Z,91.42
2023-02-24T20:08:13.843Z,91.65
2023-02-24T20:10:41.788Z,91.47
2023-02-24T20:13:09.743Z,90.90
2023-02-24T20:15:37.814Z,90.75
2023-02-24T20:18:08.707Z,90.99
2023-02-24T20:20:37.368Z,90.58
2023-02-24T20:23:06.615Z,90.64
2023-02-24T20:25:34.631Z,90.59
2023-02-24T20:28:02.948Z,90.28
2023-02-24T20:30:30.874Z,91.24
2023-02-24T20:32:59.549Z,91.39
2023-02-24T20:35:28.312Z,91.44
2023-02-24T20:37:56.292Z,91.76
2023-02-24T20:40:25.670Z,91.14
2023-02-24T20:42:53.564Z,91.62
2023-02-24T20:45:21.586Z,91.73
2023-02-24T20:47:49.503Z,92.01
2023-02-24T20:50:17.686Z,92.24
2023-02-24T20:52:45.638Z,92.26
2023-02-24T20:55:13.723Z,92.45
2023-02-24T20:57:42.973Z,92.61
2023-02-24T21:00:13.071Z,92.75
2023-02-24T21:02:41.278Z,92.94
2023-02-24T21:05:10.985Z,92.90
2023-02-24T21:07:39.783Z,93.56
2023-02-24T21:10:08.510Z,93.36
2023-02-24T21:12:36.480Z,93.33
2023-02-24T21:15:07.404Z,93.24
2023-02-24T21:17:35.444Z,93.46
2023-02-24T21:20:03.476Z,93.23
2023-02-24T21:22:31.969Z,93.22
2023-02-24T21:25:00.455Z,93.07
2023-02-24T21:27:28.407Z,92.82
2023-02-24T21:29:56.341Z,92.82
2023-02-24T21:32:25.651Z,92.78
2023-02-24T21:34:53.626Z,93.03
2023-02-24T21:37:21.604Z,93.32
2023-02-24T21:39:49.744Z,93.20
2023-02-24T21:42:17.757Z,93.52
2023-02-24T21:44:45.701Z,93.28
2023-02-24T21:47:13.624Z,93.59
2023-02-24T21:49:44.116Z,93.78
2023-02-24T21:52:12.171Z,93.99
2023-02-24T21:54:40.326Z,93.75
2023-02-24T21:57:09.210Z,93.94
2023-02-24T21:59:37.112Z,93.90
2023-02-24T22:02:05.358Z,93.76
2023-02-24T22:04:33.656Z,93.44
2023-02-24T22:07:02.927Z,93.63
2023-02-24T22:09:30.853Z,93.77
2023-02-24T22:11:58.724Z,93.58
2023-02-24T22:14:26.670Z,93.66
2023-02-24T22:16:54.615Z,93.30
2023-02-24T22:19:22.627Z,93.07
2023-02-24T22:21:50.575Z,93.21
2023-02-24T22:24:19.935Z,93.06
2023-02-24T22:26:47.816Z,93.02
2023-02-24T22:29:15.693Z,92.91
2023-02-24T22:31:47.618Z,92.96
2023-02-24T22:34:17.118Z,92.91
2023-02-24T22:36:45.162Z,92.68
2023-02-24T22:39:16.430Z,92.60
2023-02-24T22:41:47.392Z,92.58
2023-02-24T22:44:19.039Z,92.61
2023-02-24T22:46:47.751Z,92.19
2023-02-24T22:49:15.783Z,92.22
2023-02-24T22:51:43.676Z,92.27
2023-02-24T22:54:11.534Z,92.49
2023-02-24T22:56:39.458Z,92.06
2023-02-24T22:59:08.742Z,91.74
2023-02-24T23:01:38.399Z,91.36
2023-02-24T23:04:07.261Z,91.26
2023-02-24T23:06:36.977Z,91.32
2023-02-24T23:09:07.195Z,90.94
2023-02-24T23:11:38.995Z,90.83
2023-02-24T23:14:13.684Z,90.51
2023-02-24T23:16:44.342Z,89.89
2023-02-24T23:19:16.013Z,89.86
2023-02-24T23:21:47.484Z,89.85
2023-02-24T23:24:17.579Z,90.01
2023-02-24T23:26:48.969Z,89.76
2023-02-24T23:29:21.275Z,90.20
2023-02-24T23:31:49.516Z,90.33
2023-02-24T23:34:17.724Z,90.33
2023-02-24T23:36:47.931Z,89.95
2023-02-24T23:39:21.320Z,90.61
2023-02-24T23:41:49.483Z,90.49
2023-02-24T23:44:18.696Z,91.07
2023-02-24T23:46:46.655Z,91.55
2023-02-24T23:49:14.596Z,91.89
2023-02-24T23:51:48.578Z,92.16
2023-02-24T23:54:18.423Z,92.52
2023-02-24T23:56:46.907Z,92.63
2023-02-24T23:59:15.900Z,92.57
